createdAt,value
2022-08-23T00:00:52.469Z,17.78
2022-08-23T00:01:50.465Z,17.62
2022-08-23T00:02:50.473Z,17.41
2022-08-23T00:03:50.432Z,17.32
2022-08-23T00:04:56.443Z,17.28
2022-08-23T00:05:51.403Z,17.20
2022-08-23T00:06:50.408Z,17.28
2022-08-23T00:07:50.421Z,17.41
2022-08-23T00:08:50.405Z,17.33
2022-08-23T00:09:50.394Z,17.32
2022-08-23T00:10:50.350Z,17.41
2022-08-23T00:11:50.366Z,17.41
2022-08-23T00:12:50.357Z,17.44
2022-08-23T00:13:50.331Z,17.40
2022-08-23T00:14:50.316Z,17.44
2022-08-23T00:15:50.363Z,17.48
2022-08-23T00:16:50.326Z,17.43
2022-08-23T00:17:50.296Z,17.46
2022-08-23T00:18:50.320Z,17.48
2022-08-23T00:19:50.270Z,17.55
2022-08-23T00:20:50.298Z,17.46
2022-08-23T00:21:50.269Z,17.46
2022-08-23T00:22:50.259Z,17.48
2022-08-23T00:23:50.232Z,17.41
2022-08-23T00:24:50.225Z,17.29
2022-08-23T00:25:50.221Z,17.30
2022-08-23T00:26:50.220Z,17.32
2022-08-23T00:27:50.255Z,17.26
2022-08-23T00:28:50.220Z,17.32
2022-08-23T00:29:50.167Z,17.18
2022-08-23T00:30:50.170Z,17.20
2022-08-23T00:31:50.186Z,17.11
2022-08-23T00:32:50.207Z,17.07
2022-08-23T00:33:50.188Z,17.15
2022-08-23T00:34:50.119Z,17.11
2022-08-23T00:35:50.121Z,17.14
2022-08-23T00:36:50.111Z,17.10
2022-08-23T00:38:05.890Z,17.07
2022-08-23T00:38:51.104Z,17.07
2022-08-23T00:39:50.150Z,17.00
2022-08-23T00:40:50.064Z,16.77
2022-08-23T00:41:50.098Z,16.74
2022-08-23T00:42:50.024Z,16.62
2022-08-23T00:43:50.056Z,16.75
2022-08-23T00:44:50.035Z,16.70
2022-08-23T00:45:50.015Z,16.63
2022-08-23T00:46:50.011Z,16.56
2022-08-23T00:47:49.986Z,16.56
2022-08-23T00:48:50.016Z,16.56
2022-08-23T00:49:49.964Z,16.63
2022-08-23T00:50:49.975Z,16.67
2022-08-23T00:51:52.424Z,16.73
2022-08-23T00:52:49.933Z,16.67
2022-08-23T00:53:49.942Z,16.63
2022-08-23T00:54:49.944Z,16.63
2022-08-23T00:55:49.904Z,16.59
2022-08-23T00:56:49.913Z,16.53
2022-08-23T00:57:49.908Z,16.53
2022-08-23T00:58:49.894Z,16.60
2022-08-23T00:59:49.869Z,16.70
2022-08-23T01:00:49.872Z,16.71
2022-08-23T01:01:49.933Z,16.77
2022-08-23T01:02:49.857Z,16.85
2022-08-23T01:03:57.142Z,16.78
2022-08-23T01:04:50.822Z,16.78
2022-08-23T01:05:49.817Z,16.85
2022-08-23T01:06:49.818Z,16.89
2022-08-23T01:07:49.821Z,16.96
2022-08-23T01:08:49.826Z,16.85
2022-08-23T01:09:49.771Z,16.89
2022-08-23T01:10:49.773Z,16.59
2022-08-23T01:11:49.773Z,16.34
2022-08-23T01:12:49.806Z,15.96
2022-08-23T01:13:49.739Z,16.00
2022-08-23T01:14:49.731Z,15.99
2022-08-23T01:15:55.375Z,15.94
2022-08-23T01:16:49.714Z,15.93
2022-08-23T01:17:49.725Z,15.93
2022-08-23T01:18:49.717Z,15.88
2022-08-23T01:19:49.687Z,15.92
2022-08-23T01:20:49.672Z,16.01
2022-08-23T01:21:49.674Z,16.14
2022-08-23T01:22:49.671Z,16.04
2022-08-23T01:23:49.644Z,16.09
2022-08-23T01:25:07.815Z,15.97
2022-08-23T01:25:50.617Z,16.01
2022-08-23T01:26:49.632Z,16.06
2022-08-23T01:27:49.633Z,16.12
2022-08-23T01:28:49.590Z,16.03
2022-08-23T01:29:49.596Z,16.06
2022-08-23T01:30:49.554Z,16.14
2022-08-23T01:31:49.580Z,16.15
2022-08-23T01:32:49.573Z,16.18
2022-08-23T01:33:49.541Z,16.26
2022-08-23T01:34:51.656Z,16.18
2022-08-23T01:35:49.502Z,16.18
2022-08-23T01:36:49.531Z,16.26
2022-08-23T01:37:49.507Z,16.27
2022-08-23T01:38:49.475Z,16.34
2022-08-23T01:39:49.525Z,16.16
2022-08-23T01:40:49.464Z,16.34
2022-08-23T01:41:49.454Z,16.25
2022-08-23T01:42:49.487Z,16.33
2022-08-23T01:43:49.459Z,16.27
2022-08-23T01:44:49.446Z,16.14
2022-08-23T01:45:49.417Z,16.16
2022-08-23T01:46:49.395Z,16.27
2022-08-23T01:47:50.425Z,16.09
2022-08-23T01:48:49.389Z,16.16
2022-08-23T01:49:49.389Z,16.23
2022-08-23T01:50:49.373Z,16.04
2022-08-23T01:51:49.369Z,16.12
2022-08-23T01:52:49.362Z,16.11
2022-08-23T01:53:49.333Z,16.22
2022-08-23T01:54:49.345Z,16.07
2022-08-23T01:55:49.345Z,16.12
2022-08-23T01:56:49.301Z,16.15
2022-08-23T01:57:49.684Z,16.03
2022-08-23T01:58:49.299Z,16.04
2022-08-23T01:59:49.283Z,16.06
2022-08-23T02:00:49.282Z,16.09
2022-08-23T02:01:49.338Z,15.99
2022-08-23T02:02:49.286Z,16.03
2022-08-23T02:03:53.679Z,15.99
2022-08-23T02:04:50.245Z,15.88
2022-08-23T02:05:49.239Z,15.88
2022-08-23T02:06:49.224Z,15.70
2022-08-23T02:07:49.236Z,15.70
2022-08-23T02:08:49.222Z,15.61
2022-08-23T02:09:49.166Z,15.64
2022-08-23T02:10:49.197Z,15.66
2022-08-23T02:11:49.156Z,15.68
2022-08-23T02:12:49.149Z,15.67
2022-08-23T02:13:49.166Z,15.63
2022-08-23T02:14:49.130Z,15.66
2022-08-23T02:15:49.126Z,15.70
2022-08-23T02:17:02.683Z,15.74
2022-08-23T02:17:50.118Z,15.72
2022-08-23T02:18:49.137Z,15.63
2022-08-23T02:19:49.081Z,15.63
2022-08-23T02:20:49.079Z,15.74
2022-08-23T02:21:49.054Z,15.68
2022-08-23T02:22:49.064Z,15.67
2022-08-23T02:23:49.081Z,15.70
2022-08-23T02:24:49.034Z,15.67
2022-08-23T02:25:49.021Z,15.68
2022-08-23T02:26:49.049Z,15.61
2022-08-23T02:27:50.010Z,15.70
2022-08-23T02:28:49.009Z,15.72
2022-08-23T02:29:48.985Z,15.76
2022-08-23T02:30:48.990Z,15.74
2022-08-23T02:31:48.984Z,15.63
2022-08-23T02:32:48.963Z,15.54
2022-08-23T02:34:35.850Z,15.70
2022-08-23T02:34:51.172Z,15.56
2022-08-23T02:35:49.965Z,15.49
2022-08-23T02:36:48.984Z,15.41
2022-08-23T02:37:48.987Z,15.33
2022-08-23T02:38:48.945Z,15.26
2022-08-23T02:39:48.952Z,15.24
2022-08-23T02:40:53.015Z,15.13
2022-08-23T02:41:49.929Z,15.21
2022-08-23T02:42:48.906Z,15.13
2022-08-23T02:43:48.919Z,15.17
2022-08-23T02:44:48.926Z,15.27
2022-08-23T02:45:48.894Z,15.27
2022-08-23T02:46:48.881Z,15.35
2022-08-23T02:47:48.896Z,15.15
2022-08-23T02:48:48.886Z,15.05
2022-08-23T02:49:48.863Z,15.06
2022-08-23T02:50:48.848Z,14.94
2022-08-23T02:51:48.846Z,14.98
2022-08-23T02:52:48.822Z,14.99
2022-08-23T02:53:48.823Z,14.95
2022-08-23T02:54:48.793Z,15.09
2022-08-23T02:55:48.776Z,15.09
2022-08-23T02:56:48.753Z,15.06
2022-08-23T02:57:48.790Z,15.06
2022-08-23T02:58:54.060Z,14.93
2022-08-23T02:59:49.733Z,15.03
2022-08-23T03:00:48.743Z,15.08
2022-08-23T03:01:48.712Z,15.06
2022-08-23T03:02:48.714Z,14.95
2022-08-23T03:03:48.702Z,14.99
2022-08-23T03:04:48.698Z,14.99
2022-08-23T03:05:48.661Z,14.95
2022-08-23T03:06:48.663Z,14.93
2022-08-23T03:07:48.648Z,14.86
2022-08-23T03:08:48.664Z,14.95
2022-08-23T03:09:48.621Z,15.05
2022-08-23T03:10:48.633Z,15.08
2022-08-23T03:11:48.629Z,15.02
2022-08-23T03:12:48.595Z,15.05
2022-08-23T03:13:48.618Z,15.06
2022-08-23T03:14:48.570Z,15.05
2022-08-23T03:15:48.556Z,15.11
2022-08-23T03:16:48.591Z,15.08
2022-08-23T03:17:48.574Z,15.05
2022-08-23T03:18:48.576Z,15.15
2022-08-23T03:19:48.566Z,15.15
2022-08-23T03:20:48.514Z,15.12
2022-08-23T03:21:48.498Z,15.23
2022-08-23T03:22:54.465Z,15.09
2022-08-23T03:23:49.498Z,15.15
2022-08-23T03:25:22.404Z,15.06
2022-08-23T03:26:22.423Z,15.24
2022-08-23T03:26:48.432Z,15.19
2022-08-23T03:28:22.456Z,15.11
2022-08-23T03:29:22.020Z,14.98
2022-08-23T03:30:22.531Z,15.08
2022-08-23T03:31:22.547Z,14.98
2022-08-23T03:32:22.593Z,15.01
2022-08-23T03:34:07.383Z,15.06
2022-08-23T03:35:16.557Z,15.13
2022-08-23T03:36:16.589Z,15.09
2022-08-23T03:37:07.370Z,15.23
2022-08-23T03:38:07.351Z,15.21
2022-08-23T03:39:07.357Z,15.23
2022-08-23T03:40:07.384Z,15.20
2022-08-23T03:41:07.316Z,15.31
2022-08-23T03:42:07.309Z,15.28
2022-08-23T03:43:07.303Z,15.33
2022-08-23T03:44:07.292Z,15.46
2022-08-23T03:45:07.274Z,15.38
2022-08-23T03:46:07.265Z,15.30
2022-08-23T03:47:07.259Z,15.27
2022-08-23T03:48:07.249Z,15.15
2022-08-23T03:49:07.245Z,15.03
2022-08-23T03:50:07.228Z,15.13
2022-08-23T03:51:07.217Z,15.09
2022-08-23T03:52:07.207Z,15.05
2022-08-23T03:53:07.198Z,15.13
2022-08-23T03:54:07.199Z,15.13
2022-08-23T03:55:07.182Z,15.17
2022-08-23T03:56:07.165Z,15.27
2022-08-23T03:57:07.156Z,15.27
2022-08-23T03:58:07.140Z,15.35
2022-08-23T03:59:07.144Z,15.30
2022-08-23T04:00:07.122Z,15.23
2022-08-23T04:01:07.114Z,15.30
2022-08-23T04:02:07.144Z,15.35
2022-08-23T04:03:07.092Z,15.39
2022-08-23T04:04:07.093Z,15.38
2022-08-23T04:05:07.070Z,15.42
2022-08-23T04:06:07.066Z,15.33
2022-08-23T04:07:07.057Z,15.46
2022-08-23T04:08:07.043Z,15.52
2022-08-23T04:09:07.044Z,15.39
2022-08-23T04:10:07.021Z,15.49
2022-08-23T04:11:07.009Z,15.57
2022-08-23T04:12:17.275Z,15.49
2022-08-23T04:13:07.988Z,15.49
2022-08-23T04:14:06.995Z,15.46
2022-08-23T04:15:06.974Z,15.52
2022-08-23T04:16:06.954Z,15.48
2022-08-23T04:17:06.949Z,15.42
2022-08-23T04:18:06.937Z,15.54
2022-08-23T04:19:06.928Z,15.49
2022-08-23T04:20:06.930Z,15.52
2022-08-23T04:21:06.914Z,15.48
2022-08-23T04:22:06.900Z,15.61
2022-08-23T04:23:06.887Z,15.46
2022-08-23T04:24:06.881Z,15.64
2022-08-23T04:25:32.978Z,15.67
2022-08-23T04:26:09.809Z,15.63
2022-08-23T04:27:06.882Z,15.66
2022-08-23T04:28:06.837Z,15.61
2022-08-23T04:29:06.832Z,15.67
2022-08-23T04:30:06.830Z,15.63
2022-08-23T04:31:06.810Z,15.59
2022-08-23T04:32:07.712Z,15.57
2022-08-23T04:33:09.919Z,15.70
2022-08-23T04:34:06.773Z,15.63
2022-08-23T04:35:06.781Z,15.54
2022-08-23T04:36:06.753Z,15.51
2022-08-23T04:37:09.276Z,15.46
2022-08-23T04:38:24.467Z,15.45
2022-08-23T04:39:07.723Z,15.42
2022-08-23T04:40:06.792Z,15.49
2022-08-23T04:41:11.128Z,15.51
2022-08-23T04:42:06.714Z,15.51
2022-08-23T04:43:06.681Z,15.56
2022-08-23T04:44:06.667Z,15.52
2022-08-23T04:45:06.675Z,15.52
2022-08-23T04:46:06.643Z,15.74
2022-08-23T04:47:06.638Z,15.76
2022-08-23T04:48:06.628Z,15.81
2022-08-23T04:49:07.620Z,15.92
2022-08-23T04:50:06.618Z,15.82
2022-08-23T04:51:07.559Z,15.93
2022-08-23T04:52:06.585Z,16.06
2022-08-23T04:53:06.580Z,15.88
2022-08-23T04:54:06.558Z,16.07
2022-08-23T04:55:06.564Z,16.00
2022-08-23T04:56:06.546Z,16.03
2022-08-23T04:57:06.533Z,16.03
2022-08-23T04:58:06.514Z,16.04
2022-08-23T04:59:06.519Z,16.06
2022-08-23T05:00:06.509Z,16.16
2022-08-23T05:01:06.527Z,16.30
2022-08-23T05:02:06.475Z,16.27
2022-08-23T05:03:06.475Z,16.38
2022-08-23T05:04:06.458Z,16.52
2022-08-23T05:05:06.461Z,16.58
2022-08-23T05:06:06.439Z,16.62
2022-08-23T05:07:06.435Z,16.83
2022-08-23T05:08:06.415Z,16.88
2022-08-23T05:09:06.414Z,16.92
2022-08-23T05:10:06.404Z,17.03
2022-08-23T05:11:06.393Z,17.06
2022-08-23T05:12:06.375Z,17.07
2022-08-23T05:13:06.373Z,17.07
2022-08-23T05:14:06.357Z,17.08
2022-08-23T05:15:06.354Z,17.13
2022-08-23T05:16:06.333Z,17.11
2022-08-23T05:17:06.329Z,17.18
2022-08-23T05:18:06.311Z,17.08
2022-08-23T05:19:06.312Z,17.15
2022-08-23T05:20:06.304Z,17.08
2022-08-23T05:21:06.288Z,17.15
2022-08-23T05:22:06.287Z,17.28
2022-08-23T05:23:07.272Z,17.30
2022-08-23T05:24:06.249Z,17.35
2022-08-23T05:25:06.255Z,17.36
2022-08-23T05:26:06.226Z,17.43
2022-08-23T05:27:08.654Z,17.47
2022-08-23T05:28:06.208Z,17.62
2022-08-23T05:29:06.198Z,17.57
2022-08-23T05:30:20.690Z,17.67
2022-08-23T05:31:07.109Z,17.81
2022-08-23T05:32:06.302Z,17.89
2022-08-23T05:33:06.920Z,17.85
2022-08-23T05:34:06.140Z,17.84
2022-08-23T05:35:06.168Z,17.82
2022-08-23T05:36:06.138Z,17.81
2022-08-23T05:37:06.165Z,17.84
2022-08-23T05:38:06.095Z,17.82
2022-08-23T05:39:06.098Z,18.02
2022-08-23T05:40:06.106Z,17.94
2022-08-23T05:41:07.090Z,18.10
2022-08-23T05:42:06.077Z,18.17
2022-08-23T05:43:06.049Z,18.33
2022-08-23T05:44:06.064Z,18.43
2022-08-23T05:45:06.259Z,18.58
2022-08-23T05:46:06.027Z,18.74
2022-08-23T05:47:06.892Z,18.72
2022-08-23T05:48:05.987Z,18.72
2022-08-23T05:49:05.984Z,18.80
2022-08-23T05:50:06.000Z,18.97
2022-08-23T05:51:05.993Z,18.99
2022-08-23T05:52:05.962Z,19.15
2022-08-23T05:53:05.945Z,19.25
2022-08-23T05:54:05.964Z,19.32
2022-08-23T05:55:05.952Z,19.40
2022-08-23T05:56:05.931Z,19.58
2022-08-23T05:57:05.898Z,19.80
2022-08-23T05:58:05.891Z,19.78
2022-08-23T05:59:05.890Z,20.06
2022-08-23T06:00:06.899Z,20.06
2022-08-23T06:01:05.920Z,20.23
2022-08-23T06:02:05.879Z,20.28
2022-08-23T06:03:05.833Z,20.28
2022-08-23T06:04:05.825Z,20.43
2022-08-23T06:05:05.844Z,20.49
2022-08-23T06:06:05.848Z,20.43
2022-08-23T06:07:05.806Z,20.61
2022-08-23T06:08:05.804Z,20.65
2022-08-23T06:09:05.807Z,20.62
2022-08-23T06:10:05.810Z,20.50
2022-08-23T06:11:05.776Z,20.50
2022-08-23T06:12:05.816Z,20.54
2022-08-23T06:13:05.785Z,20.46
2022-08-23T06:14:05.777Z,20.53
2022-08-23T06:15:05.728Z,20.47
2022-08-23T06:16:14.795Z,20.46
2022-08-23T06:17:06.702Z,20.33
2022-08-23T06:18:05.714Z,20.27
2022-08-23T06:19:05.702Z,20.24
2022-08-23T06:20:05.717Z,20.13
2022-08-23T06:21:05.671Z,20.06
2022-08-23T06:22:05.673Z,20.05
2022-08-23T06:23:05.649Z,19.97
2022-08-23T06:24:05.647Z,20.02
2022-08-23T06:25:09.122Z,19.87
2022-08-23T06:26:05.638Z,19.93
2022-08-23T06:27:05.633Z,19.95
2022-08-23T06:28:05.618Z,19.90
2022-08-23T06:29:05.665Z,19.91
2022-08-23T06:30:05.567Z,19.94
2022-08-23T06:31:05.603Z,19.86
2022-08-23T06:32:05.568Z,19.88
2022-08-23T06:33:05.538Z,19.80
2022-08-23T06:34:05.589Z,19.80
2022-08-23T06:35:33.132Z,19.72
2022-08-23T06:36:06.560Z,19.79
2022-08-23T06:37:05.491Z,19.88
2022-08-23T06:38:05.475Z,19.70
2022-08-23T06:39:05.473Z,19.76
2022-08-23T06:40:05.522Z,19.90
2022-08-23T06:41:05.489Z,20.03
2022-08-23T06:42:13.287Z,20.27
2022-08-23T06:43:06.436Z,20.41
2022-08-23T06:44:05.432Z,20.61
2022-08-23T06:45:05.413Z,20.84
2022-08-23T06:46:05.420Z,21.01
2022-08-23T06:47:05.459Z,21.11
2022-08-23T06:48:05.378Z,21.24
2022-08-23T06:49:05.458Z,21.32
2022-08-23T06:50:05.387Z,21.36
2022-08-23T06:51:07.050Z,21.53
2022-08-23T06:52:05.331Z,21.82
2022-08-23T06:53:07.253Z,21.98
2022-08-23T06:54:05.324Z,22.17
2022-08-23T06:55:05.317Z,22.34
2022-08-23T06:56:05.363Z,22.43
2022-08-23T06:57:05.298Z,22.62
2022-08-23T06:58:05.285Z,22.90
2022-08-23T06:59:05.262Z,23.31
2022-08-23T07:00:05.267Z,23.62
2022-08-23T07:01:05.286Z,23.95
2022-08-23T07:02:05.392Z,24.42
2022-08-23T07:03:05.296Z,24.56
2022-08-23T07:04:05.212Z,24.73
2022-08-23T07:05:05.233Z,25.01
2022-08-23T07:06:05.281Z,25.10
2022-08-23T07:07:09.474Z,25.38
2022-08-23T07:08:06.212Z,25.75
2022-08-23T07:09:05.183Z,25.86
2022-08-23T07:10:05.193Z,25.86
2022-08-23T07:11:05.155Z,25.57
2022-08-23T07:12:05.133Z,24.92
2022-08-23T07:13:05.142Z,24.85
2022-08-23T07:14:05.129Z,24.52
2022-08-23T07:15:05.096Z,24.37
2022-08-23T07:16:05.209Z,24.10
2022-08-23T07:17:05.076Z,24.07
2022-08-23T07:18:05.087Z,24.23
2022-08-23T07:19:05.079Z,24.41
2022-08-23T07:20:05.067Z,24.53
2022-08-23T07:21:05.069Z,24.67
2022-08-23T07:22:05.064Z,24.75
2022-08-23T07:23:05.030Z,25.00
2022-08-23T07:24:05.026Z,25.50
2022-08-23T07:25:04.999Z,25.83
2022-08-23T07:26:04.993Z,26.24
2022-08-23T07:27:04.991Z,26.59
2022-08-23T07:28:08.602Z,26.77
2022-08-23T07:29:05.986Z,26.61
2022-08-23T07:30:04.986Z,26.02
2022-08-23T07:31:05.031Z,25.69
2022-08-23T07:32:06.182Z,25.61
2022-08-23T07:33:07.325Z,25.46
2022-08-23T07:34:04.921Z,25.49
2022-08-23T07:35:04.900Z,25.62
2022-08-23T07:36:04.920Z,25.89
2022-08-23T07:37:15.482Z,25.64
2022-08-23T07:38:05.884Z,25.32
2022-08-23T07:39:04.898Z,25.09
2022-08-23T07:40:04.968Z,25.00
2022-08-23T07:41:04.886Z,25.22
2022-08-23T07:42:22.575Z,25.37
2022-08-23T07:43:05.881Z,25.53
2022-08-23T07:44:04.836Z,25.59
2022-08-23T07:45:04.824Z,25.53
2022-08-23T07:46:04.975Z,25.61
2022-08-23T07:47:04.837Z,25.32
2022-08-23T07:48:04.895Z,25.35
2022-08-23T07:49:04.854Z,25.13
2022-08-23T07:50:05.664Z,25.19
2022-08-23T07:51:04.797Z,25.47
2022-08-23T07:52:04.837Z,25.49
2022-08-23T07:53:04.768Z,25.59
2022-08-23T07:54:04.752Z,25.52
2022-08-23T07:55:04.723Z,25.38
2022-08-23T07:56:04.738Z,25.28
2022-08-23T07:57:04.713Z,25.19
2022-08-23T07:58:04.690Z,25.44
2022-08-23T07:59:04.660Z,25.54
2022-08-23T08:00:04.645Z,25.71
2022-08-23T08:01:04.674Z,25.87
2022-08-23T08:02:04.703Z,25.86
2022-08-23T08:03:04.655Z,26.05
2022-08-23T08:04:04.614Z,26.37
2022-08-23T08:05:04.595Z,26.35
2022-08-23T08:06:04.601Z,25.99
2022-08-23T08:07:18.685Z,25.83
2022-08-23T08:08:05.600Z,25.69
2022-08-23T08:09:04.612Z,25.56
2022-08-23T08:10:04.606Z,25.49
2022-08-23T08:11:04.573Z,25.25
2022-08-23T08:12:04.585Z,25.20
2022-08-23T08:13:04.524Z,25.22
2022-08-23T08:14:04.504Z,25.25
2022-08-23T08:15:04.508Z,25.37
2022-08-23T08:16:04.524Z,25.28
2022-08-23T08:17:04.513Z,25.13
2022-08-23T08:18:05.121Z,25.07
2022-08-23T08:19:07.423Z,25.00
2022-08-23T08:20:04.448Z,25.09
2022-08-23T08:21:04.430Z,25.16
2022-08-23T08:22:04.456Z,25.19
2022-08-23T08:23:04.419Z,25.34
2022-08-23T08:24:04.417Z,25.43
2022-08-23T08:25:04.415Z,25.44
2022-08-23T08:26:05.491Z,25.50
2022-08-23T08:27:04.424Z,25.39
2022-08-23T08:28:04.389Z,25.31
2022-08-23T08:29:04.353Z,25.28
2022-08-23T08:30:04.349Z,25.37
2022-08-23T08:31:04.377Z,25.38
2022-08-23T08:32:04.347Z,25.39
2022-08-23T08:33:04.461Z,25.35
2022-08-23T08:34:04.372Z,25.44
2022-08-23T08:35:04.291Z,25.31
2022-08-23T08:36:05.081Z,25.37
2022-08-23T08:37:04.280Z,25.46
2022-08-23T08:38:04.263Z,25.34
2022-08-23T08:39:04.240Z,25.32
2022-08-23T08:40:04.295Z,25.52
2022-08-23T08:41:04.239Z,25.59
2022-08-23T08:42:05.259Z,25.57
2022-08-23T08:43:04.210Z,25.54
2022-08-23T08:44:04.204Z,25.71
2022-08-23T08:45:04.190Z,25.86
2022-08-23T08:46:04.242Z,26.06
2022-08-23T08:47:06.364Z,26.06
2022-08-23T08:48:05.406Z,25.98
2022-08-23T08:49:05.378Z,25.84
2022-08-23T08:50:05.353Z,25.90
2022-08-23T08:51:05.336Z,25.79
2022-08-23T08:52:05.362Z,25.79
2022-08-23T08:53:05.309Z,25.83
2022-08-23T08:54:05.274Z,25.99
2022-08-23T08:55:05.296Z,26.05
2022-08-23T08:56:05.274Z,26.15
2022-08-23T08:57:05.307Z,26.05
2022-08-23T08:58:05.325Z,25.99
2022-08-23T08:59:05.271Z,26.05
2022-08-23T09:00:05.227Z,26.15
2022-08-23T09:01:05.343Z,26.17
2022-08-23T09:02:05.395Z,26.12
2022-08-23T09:03:06.295Z,26.06
2022-08-23T09:04:05.315Z,26.21
2022-08-23T09:05:05.211Z,26.28
2022-08-23T09:06:05.250Z,26.49
2022-08-23T09:07:05.207Z,26.37
2022-08-23T09:08:05.232Z,26.50
2022-08-23T09:09:05.178Z,26.59
2022-08-23T09:10:05.235Z,26.62
2022-08-23T09:11:06.543Z,26.52
2022-08-23T09:12:05.204Z,26.68
2022-08-23T09:13:05.124Z,26.84
2022-08-23T09:14:05.123Z,26.72
2022-08-23T09:15:05.362Z,26.76
2022-08-23T09:16:05.153Z,26.73
2022-08-23T09:17:05.586Z,26.80
2022-08-23T09:18:06.070Z,26.65
2022-08-23T09:19:05.124Z,26.81
2022-08-23T09:20:05.019Z,26.95
2022-08-23T09:21:05.016Z,27.05
2022-08-23T09:22:05.005Z,26.94
2022-08-23T09:23:05.053Z,26.68
2022-08-23T09:24:04.986Z,26.79
2022-08-23T09:25:05.089Z,26.98
2022-08-23T09:26:06.043Z,27.32
2022-08-23T09:27:05.094Z,27.14
2022-08-23T09:28:04.984Z,27.19
2022-08-23T09:29:04.932Z,27.38
2022-08-23T09:30:05.008Z,27.35
2022-08-23T09:31:05.197Z,27.57
2022-08-23T09:32:08.212Z,27.43
2022-08-23T09:33:05.968Z,27.76
2022-08-23T09:34:04.955Z,27.79
2022-08-23T09:35:06.243Z,27.74
2022-08-23T09:36:04.960Z,27.79
2022-08-23T09:37:04.925Z,27.80
2022-08-23T09:38:04.930Z,27.74
2022-08-23T09:39:04.887Z,27.59
2022-08-23T09:40:04.931Z,27.73
2022-08-23T09:41:05.026Z,27.70
2022-08-23T09:42:04.985Z,27.92
2022-08-23T09:43:04.819Z,28.04
2022-08-23T09:44:04.812Z,28.16
2022-08-23T09:45:04.840Z,28.32
2022-08-23T09:46:04.842Z,28.07
2022-08-23T09:47:07.359Z,27.98
2022-08-23T09:48:04.792Z,27.82
2022-08-23T09:49:05.295Z,27.91
2022-08-23T09:50:04.756Z,27.95
2022-08-23T09:51:04.758Z,27.71
2022-08-23T09:52:04.779Z,27.73
2022-08-23T09:53:10.691Z,27.77
2022-08-23T09:54:06.190Z,28.16
2022-08-23T09:55:04.721Z,28.81
2022-08-23T09:56:07.683Z,29.40
2022-08-23T09:57:16.544Z,29.41
2022-08-23T09:58:04.760Z,29.75
2022-08-23T09:59:05.817Z,30.34
2022-08-23T10:00:42.314Z,30.94
2022-08-23T10:01:10.278Z,31.43
2022-08-23T10:02:05.658Z,31.12
2022-08-23T10:03:04.618Z,30.49
2022-08-23T10:04:04.654Z,29.94
2022-08-23T10:05:04.668Z,29.71
2022-08-23T10:06:04.660Z,29.56
2022-08-23T10:07:04.546Z,29.43
2022-08-23T10:08:07.632Z,29.86
2022-08-23T10:09:05.545Z,30.21
2022-08-23T10:10:04.568Z,29.97
2022-08-23T10:11:04.674Z,30.09
2022-08-23T10:12:04.549Z,29.93
2022-08-23T10:13:04.663Z,30.00
2022-08-23T10:14:04.493Z,29.59
2022-08-23T10:15:04.750Z,29.63
2022-08-23T10:16:04.573Z,30.03
2022-08-23T10:17:04.470Z,30.08
2022-08-23T10:18:04.476Z,30.09
2022-08-23T10:19:04.444Z,30.38
2022-08-23T10:20:04.432Z,30.84
2022-08-23T10:21:04.457Z,31.12
2022-08-23T10:22:04.399Z,31.11
2022-08-23T10:23:04.461Z,30.83
2022-08-23T10:24:04.406Z,30.65
2022-08-23T10:25:05.805Z,30.71
2022-08-23T10:26:04.465Z,30.89
2022-08-23T10:27:04.423Z,30.87
2022-08-23T10:28:04.473Z,30.80
2022-08-23T10:29:04.402Z,30.74
2022-08-23T10:30:04.377Z,31.01
2022-08-23T10:31:04.409Z,31.55
2022-08-23T10:32:04.349Z,31.54
2022-08-23T10:33:04.365Z,31.30
2022-08-23T10:34:04.305Z,31.50
2022-08-23T10:35:04.307Z,32.17
2022-08-23T10:36:04.309Z,32.59
2022-08-23T10:37:04.247Z,33.01
2022-08-23T10:38:05.373Z,33.03
2022-08-23T10:39:04.275Z,33.36
2022-08-23T10:40:04.584Z,33.49
2022-08-23T10:41:04.246Z,33.10
2022-08-23T10:42:04.221Z,33.23
2022-08-23T10:43:04.241Z,33.39
2022-08-23T10:44:04.219Z,33.70
2022-08-23T10:45:04.206Z,33.61
2022-08-23T10:46:04.226Z,33.90
2022-08-23T10:47:04.347Z,33.76
2022-08-23T10:48:04.527Z,34.02
2022-08-23T10:49:04.211Z,34.26
2022-08-23T10:50:04.186Z,34.64
2022-08-23T10:51:04.182Z,35.02
2022-08-23T10:52:04.223Z,35.14
2022-08-23T10:53:04.334Z,34.50
2022-08-23T10:54:04.165Z,33.55
2022-08-23T10:55:04.174Z,32.73
2022-08-23T10:56:05.085Z,32.69
2022-08-23T10:57:25.856Z,33.07
2022-08-23T10:58:05.164Z,33.26
2022-08-23T10:59:04.144Z,32.48
2022-08-23T11:00:04.132Z,31.75
2022-08-23T11:01:04.151Z,31.38
2022-08-23T11:02:04.136Z,31.46
2022-08-23T11:03:04.126Z,31.30
2022-08-23T11:04:04.072Z,31.06
2022-08-23T11:05:05.237Z,30.98
2022-08-23T11:06:05.740Z,30.78
2022-08-23T11:07:04.033Z,30.64
2022-08-23T11:08:04.188Z,30.40
2022-08-23T11:09:04.039Z,30.56
2022-08-23T11:10:04.015Z,30.69
2022-08-23T11:11:03.990Z,30.84
2022-08-23T11:12:05.636Z,30.83
2022-08-23T11:13:04.949Z,31.48
2022-08-23T11:14:04.324Z,32.51
2022-08-23T11:15:09.806Z,33.27
2022-08-23T11:16:04.951Z,33.78
2022-08-23T11:17:03.937Z,34.27
2022-08-23T11:18:04.084Z,34.53
2022-08-23T11:19:03.944Z,35.30
2022-08-23T11:20:03.876Z,35.55
2022-08-23T11:21:03.852Z,35.70
2022-08-23T11:22:03.904Z,35.69
2022-08-23T11:23:03.917Z,36.24
2022-08-23T11:24:03.892Z,36.60
2022-08-23T11:25:03.852Z,36.46
2022-08-23T11:26:03.832Z,36.27
2022-08-23T11:27:06.260Z,36.42
2022-08-23T11:28:04.893Z,36.15
2022-08-23T11:29:03.855Z,35.63
2022-08-23T11:30:03.787Z,34.86
2022-08-23T11:31:03.860Z,34.61
2022-08-23T11:32:03.862Z,33.94
2022-08-23T11:33:03.811Z,33.23
2022-08-23T11:34:03.781Z,32.99
2022-08-23T11:35:03.806Z,32.96
2022-08-23T11:36:03.763Z,33.29
2022-08-23T11:37:03.761Z,33.86
2022-08-23T11:38:04.229Z,33.86
2022-08-23T11:39:03.780Z,33.58
2022-08-23T11:40:03.852Z,33.43
2022-08-23T11:41:03.776Z,33.80
2022-08-23T11:42:03.737Z,34.19
2022-08-23T11:43:03.698Z,34.27
2022-08-23T11:44:03.749Z,34.17
2022-08-23T11:45:03.715Z,34.23
2022-08-23T11:46:03.784Z,33.39
2022-08-23T11:47:04.651Z,32.88
2022-08-23T11:48:03.678Z,32.54
2022-08-23T11:49:03.676Z,32.25
2022-08-23T11:50:03.673Z,32.18
2022-08-23T11:51:03.687Z,32.17
2022-08-23T11:52:04.403Z,32.36
2022-08-23T11:53:03.664Z,32.43
2022-08-23T11:54:03.709Z,32.44
2022-08-23T11:55:03.574Z,32.67
2022-08-23T11:56:03.626Z,33.49
2022-08-23T11:57:03.570Z,34.45
2022-08-23T11:58:03.792Z,35.11
2022-08-23T11:59:08.588Z,35.67
2022-08-23T12:00:09.330Z,35.50
2022-08-23T12:01:03.502Z,34.54
2022-08-23T12:02:03.579Z,34.01
2022-08-23T12:03:09.040Z,34.35
2022-08-23T12:04:11.848Z,35.21
2022-08-23T12:05:06.856Z,35.42
2022-08-23T12:06:40.497Z,35.89
2022-08-23T12:07:11.572Z,36.48
2022-08-23T12:08:05.816Z,37.21
2022-08-23T12:09:36.292Z,37.73
2022-08-23T12:10:33.253Z,37.59
2022-08-23T12:11:06.987Z,37.56
2022-08-23T12:12:36.176Z,37.05
2022-08-23T12:13:06.255Z,36.94
2022-08-23T12:14:03.514Z,37.09
2022-08-23T12:15:03.446Z,36.68
2022-08-23T12:16:03.508Z,36.43
2022-08-23T12:17:04.221Z,35.50
2022-08-23T12:18:03.747Z,35.06
2022-08-23T12:19:03.383Z,34.99
2022-08-23T12:20:03.507Z,35.30
2022-08-23T12:21:03.409Z,35.50
2022-08-23T12:22:34.272Z,36.01
2022-08-23T12:23:32.478Z,36.14
2022-08-23T12:24:04.328Z,36.03
2022-08-23T12:25:03.369Z,36.17
2022-08-23T12:27:36.712Z,36.35
2022-08-23T12:27:48.354Z,35.45
2022-08-23T12:28:39.278Z,35.47
2022-08-23T12:29:38.277Z,35.47
2022-08-23T12:30:42.435Z,34.77
2022-08-23T12:33:19.850Z,34.01
2022-08-23T12:33:27.000Z,33.39
2022-08-23T12:38:40.306Z,33.71
2022-08-23T12:39:40.299Z,34.26
2022-08-23T12:40:42.583Z,34.61
2022-08-23T12:41:40.319Z,35.10
2022-08-23T12:42:40.820Z,35.48
2022-08-23T12:43:40.269Z,36.31
2022-08-23T12:44:40.485Z,36.76
2022-08-23T12:45:40.564Z,36.42
2022-08-23T12:46:40.300Z,35.67
2022-08-23T12:47:42.969Z,34.92
2022-08-23T12:48:40.220Z,34.72
2022-08-23T12:49:40.207Z,34.23
2022-08-23T12:50:40.231Z,34.16
2022-08-23T12:51:40.192Z,33.87
2022-08-23T12:52:40.200Z,33.92
2022-08-23T12:53:44.498Z,34.02
2022-08-23T12:54:41.166Z,33.82
2022-08-23T12:55:40.154Z,33.33
2022-08-23T12:57:42.144Z,32.92
2022-08-23T12:58:47.551Z,32.91
2022-08-23T12:59:45.241Z,32.73
2022-08-23T13:00:41.960Z,32.73